sensor_id;sensor_type;location;lat;lon;timestamp;P1;durP1;ratioP1;P2;durP2;ratioP2
15812;SDS011;8007;51.404;6.304;2022-12-10T19:19:47;101.13;;;26.03;;
15812;SDS011;8007;51.404;6.304;2022-12-10T19:21:50;84.90;;;26.37;;
15812;SDS011;8007;51.404;6.304;2022-12-10T19:23:55;91.20;;;27.47;;
15812;SDS011;8007;51.404;6.304;2022-12-10T19:26:05;94.80;;;26.57;;
15812;SDS011;8007;51.404;6.304;2022-12-10T19:28:16;94.00;;;26.50;;
15812;SDS011;8007;51.404;6.304;2022-12-10T19:30:19;85.83;;;25.63;;
15812;SDS011;8007;51.404;6.304;2022-12-10T19:32:24;94.23;;;27.93;;
15812;SDS011;8007;51.404;6.304;2022-12-10T19:34:27;84.73;;;25.43;;
15812;SDS011;8007;51.404;6.304;2022-12-10T19:36:31;96.70;;;26.07;;
15812;SDS011;8007;51.404;6.304;2022-12-10T19:38:33;98.40;;;28.07;;
15812;SDS011;8007;51.404;6.304;2022-12-10T19:40:40;89.80;;;25.80;;
15812;SDS011;8007;51.404;6.304;2022-12-10T19:42:43;85.87;;;25.97;;
15812;SDS011;8007;51.404;6.304;2022-12-10T19:44:46;95.93;;;26.20;;
15812;SDS011;8007;51.404;6.304;2022-12-10T19:46:51;80.47;;;25.67;;
15812;SDS011;8007;51.404;6.304;2022-12-10T19:48:53;99.43;;;28.20;;
15812;SDS011;8007;51.404;6.304;2022-12-10T19:50:58;97.90;;;27.50;;
15812;SDS011;8007;51.404;6.304;2022-12-10T19:53:03;86.27;;;26.73;;
15812;SDS011;8007;51.404;6.304;2022-12-10T19:55:06;87.90;;;25.60;;
15812;SDS011;8007;51.404;6.304;2022-12-10T19:57:08;96.70;;;26.27;;
15812;SDS011;8007;51.404;6.304;2022-12-10T19:59:14;100.97;;;28.00;;
15812;SDS011;8007;51.404;6.304;2022-12-10T20:01:16;101.40;;;26.07;;
15812;SDS011;8007;51.404;6.304;2022-12-10T20:03:22;95.50;;;25.97;;
15812;SDS011;8007;51.404;6.304;2022-12-10T20:05:25;82.93;;;25.47;;
15812;SDS011;8007;51.404;6.304;2022-12-10T20:07:33;88.73;;;24.73;;
15812;SDS011;8007;51.404;6.304;2022-12-10T20:09:37;94.17;;;25.23;;
15812;SDS011;8007;51.404;6.304;2022-12-10T20:11:41;92.53;;;24.40;;
15812;SDS011;8007;51.404;6.304;2022-12-10T20:13:45;95.00;;;25.17;;
15812;SDS011;8007;51.404;6.304;2022-12-10T20:16:01;83.83;;;25.57;;
15812;SDS011;8007;51.404;6.304;2022-12-10T20:18:04;107.17;;;26.67;;
15812;SDS011;8007;51.404;6.304;2022-12-10T20:20:12;106.40;;;27.17;;
15812;SDS011;8007;51.404;6.304;2022-12-10T20:22:16;105.00;;;24.57;;
15812;SDS011;8007;51.404;6.304;2022-12-10T20:24:20;98.67;;;25.37;;
15812;SDS011;8007;51.404;6.304;2022-12-10T20:26:25;99.23;;;25.90;;
15812;SDS011;8007;51.404;6.304;2022-12-10T20:28:28;100.43;;;25.83;;
15812;SDS011;8007;51.404;6.304;2022-12-10T20:30:38;98.17;;;26.47;;
15812;SDS011;8007;51.404;6.304;2022-12-10T20:32:40;89.17;;;25.27;;
15812;SDS011;8007;51.404;6.304;2022-12-10T20:34:44;99.93;;;26.03;;
15812;SDS011;8007;51.404;6.304;2022-12-10T20:36:48;97.47;;;25.20;;
15812;SDS011;8007;51.404;6.304;2022-12-10T20:38:51;96.07;;;24.23;;
15812;SDS011;8007;51.404;6.304;2022-12-10T20:40:53;92.97;;;24.10;;
15812;SDS011;8007;51.404;6.304;2022-12-10T20:42:58;86.77;;;24.00;;
15812;SDS011;8007;51.404;6.304;2022-12-10T20:45:04;91.77;;;24.43;;
15812;SDS011;8007;51.404;6.304;2022-12-10T20:47:09;91.50;;;25.43;;
15812;SDS011;8007;51.404;6.304;2022-12-10T20:49:16;101.50;;;25.90;;
15812;SDS011;8007;51.404;6.304;2022-12-10T20:51:20;110.53;;;27.03;;
15812;SDS011;8007;51.404;6.304;2022-12-10T20:53:23;91.00;;;24.80;;
15812;SDS011;8007;51.404;6.304;2022-12-10T20:55:26;99.60;;;24.37;;
15812;SDS011;8007;51.404;6.304;2022-12-10T20:57:28;88.73;;;23.77;;
15812;SDS011;8007;51.404;6.304;2022-12-10T20:59:32;89.83;;;23.97;;
15812;SDS011;8007;51.404;6.304;2022-12-10T21:01:35;87.50;;;23.50;;
15812;SDS011;8007;51.404;6.304;2022-12-10T21:03:39;73.90;;;20.37;;
15812;SDS011;8007;51.404;6.304;2022-12-10T21:05:43;92.87;;;23.20;;
15812;SDS011;8007;51.404;6.304;2022-12-10T21:07:50;73.40;;;20.17;;
15812;SDS011;8007;51.404;6.304;2022-12-10T21:09:52;74.40;;;21.33;;
15812;SDS011;8007;51.404;6.304;2022-12-10T21:11:59;74.97;;;21.20;;
15812;SDS011;8007;51.404;6.304;2022-12-10T21:14:02;64.73;;;17.83;;
15812;SDS011;8007;51.404;6.304;2022-12-10T21:16:07;65.73;;;20.30;;
15812;SDS011;8007;51.404;6.304;2022-12-10T21:18:11;64.00;;;19.40;;
15812;SDS011;8007;51.404;6.304;2022-12-10T21:20:16;63.80;;;18.83;;
15812;SDS011;8007;51.404;6.304;2022-12-10T21:22:19;65.17;;;17.90;;
15812;SDS011;8007;51.404;6.304;2022-12-10T21:24:21;59.80;;;19.07;;
15812;SDS011;8007;51.404;6.304;2022-12-10T21:26:24;64.57;;;18.07;;
15812;SDS011;8007;51.404;6.304;2022-12-10T21:28:29;75.03;;;18.30;;
15812;SDS011;8007;51.404;6.304;2022-12-10T21:30:31;65.63;;;19.00;;
15812;SDS011;8007;51.404;6.304;2022-12-10T21:32:37;78.27;;;19.57;;
15812;SDS011;8007;51.404;6.304;2022-12-10T21:34:40;68.97;;;22.83;;
15812;SDS011;8007;51.404;6.304;2022-12-10T21:36:43;78.60;;;21.43;;
15812;SDS011;8007;51.404;6.304;2022-12-10T21:38:45;78.13;;;21.67;;
15812;SDS011;8007;51.404;6.304;2022-12-10T21:40:48;77.70;;;23.53;;
15812;SDS011;8007;51.404;6.304;2022-12-10T21:42:50;87.70;;;22.67;;
15812;SDS011;8007;51.404;6.304;2022-12-10T21:45:11;71.47;;;20.50;;
15812;SDS011;8007;51.404;6.304;2022-12-10T21:47:14;85.57;;;22.97;;
15812;SDS011;8007;51.404;6.304;2022-12-10T21:49:18;78.83;;;22.10;;
15812;SDS011;8007;51.404;6.304;2022-12-10T21:51:24;80.03;;;21.23;;
15812;SDS011;8007;51.404;6.304;2022-12-10T21:53:27;81.13;;;22.23;;
15812;SDS011;8007;51.404;6.304;2022-12-10T21:55:36;76.67;;;20.40;;
15812;SDS011;8007;51.404;6.304;2022-12-10T21:57:39;75.07;;;20.17;;
15812;SDS011;8007;51.404;6.304;2022-12-10T21:59:41;72.77;;;21.23;;
15812;SDS011;8007;51.404;6.304;2022-12-10T22:01:44;61.90;;;18.57;;
15812;SDS011;8007;51.404;6.304;2022-12-10T22:03:46;56.93;;;16.70;;
15812;SDS011;8007;51.404;6.304;2022-12-10T22:05:51;63.93;;;18.27;;
15812;SDS011;8007;51.404;6.304;2022-12-10T22:07:56;60.43;;;17.90;;
15812;SDS011;8007;51.404;6.304;2022-12-10T22:09:59;56.17;;;16.97;;
15812;SDS011;8007;51.404;6.304;2022-12-10T22:12:03;61.07;;;17.60;;
15812;SDS011;8007;51.404;6.304;2022-12-10T22:14:05;64.37;;;18.77;;
15812;SDS011;8007;51.404;6.304;2022-12-10T22:16:08;67.53;;;19.20;;
15812;SDS011;8007;51.404;6.304;2022-12-10T22:18:24;69.10;;;17.30;;
15812;SDS011;8007;51.404;6.304;2022-12-10T22:20:28;69.30;;;20.00;;
15812;SDS011;8007;51.404;6.304;2022-12-10T22:22:34;65.90;;;18.33;;
15812;SDS011;8007;51.404;6.304;2022-12-10T22:24:39;76.13;;;19.87;;
15812;SDS011;8007;51.404;6.304;2022-12-10T22:26:42;68.57;;;19.43;;
15812;SDS011;8007;51.404;6.304;2022-12-10T22:28:50;79.27;;;20.37;;
15812;SDS011;8007;51.404;6.304;2022-12-10T22:30:52;64.60;;;17.67;;
15812;SDS011;8007;51.404;6.304;2022-12-10T22:32:56;73.93;;;19.93;;
15812;SDS011;8007;51.404;6.304;2022-12-10T22:34:58;69.97;;;19.43;;
15812;SDS011;8007;51.404;6.304;2022-12-10T22:37:01;87.67;;;20.73;;
15812;SDS011;8007;51.404;6.304;2022-12-10T22:39:06;72.43;;;20.63;;
15812;SDS011;8007;51.404;6.304;2022-12-10T22:41:11;83.23;;;20.10;;
15812;SDS011;8007;51.404;6.304;2022-12-10T22:43:16;76.27;;;18.97;;
15812;SDS011;8007;51.404;6.304;2022-12-10T22:45:22;70.87;;;21.40;;
15812;SDS011;8007;51.404;6.304;2022-12-10T22:47:28;77.83;;;21.63;;
15812;SDS011;8007;51.404;6.304;2022-12-10T22:49:31;86.10;;;20.70;;
